Time;durP1;ratioP1;P1;durP2;ratioP2;P2;SDS_P1;SDS_P2;PMS_P1;PMS_P2;Temp;Humidity;BMP_temperature;BMP_pressure;BME280_temperature;BME280_humidity;BME280_pressure;Samples;Min_cycle;Max_cycle;Signal;HPM_P1;HPM_P2
2022/12/25 00:02:40;;;;;;;4.57;4.17;;;;;;;14.34;59.14;98888.31;7088705;27;20290;-81
2022/12/25 00:06:03;;;;;;;5.87;4.70;;;;;;;14.40;59.13;98888.22;7087846;27;20345;-81
2022/12/25 00:09:24;;;;;;;7.57;4.53;;;;;;;14.48;59.16;98917.78;7088779;27;20307;-80
2022/12/25 00:12:46;;;;;;;6.50;4.50;;;;;;;14.62;59.32;98911.13;7088538;27;20678;-81
2022/12/25 00:16:08;;;;;;;7.17;4.27;;;;;;;14.70;58.94;98913.50;7086770;27;20283;-80
2022/12/25 00:19:30;;;;;;;5.10;4.00;;;;;;;14.39;59.48;98924.53;7088275;27;20356;-80
2022/12/25 00:22:52;;;;;;;5.40;3.60;;;;;;;14.32;59.44;98917.53;7089230;27;20739;-81
2022/12/25 00:26:16;;;;;;;9.53;3.90;;;;;;;13.48;62.20;98897.50;7088510;27;20232;-81
2022/12/25 00:29:37;;;;;;;4.37;3.40;;;;;;;14.47;60.06;98913.41;7088333;27;20575;-80
2022/12/25 00:32:59;;;;;;;6.03;3.77;;;;;;;14.52;59.44;98907.28;7097281;27;20294;-80
2022/12/25 00:36:22;;;;;;;4.67;3.90;;;;;;;14.40;59.64;98901.78;7116727;27;20221;-81
2022/12/25 00:39:44;;;;;;;5.87;4.80;;;;;;;14.66;59.28;98889.78;7117019;27;20953;-81
2022/12/25 00:43:06;;;;;;;5.37;2.77;;;;;;;14.54;58.58;98872.63;7116944;27;20344;-81
2022/12/25 00:46:27;;;;;;;5.53;2.80;;;;;;;14.44;58.56;98894.84;7116147;27;20446;-81
2022/12/25 00:49:49;;;;;;;6.07;2.90;;;;;;;13.99;60.23;98914.34;7116723;27;20282;-81
2022/12/25 00:53:10;;;;;;;4.23;2.57;;;;;;;14.47;58.93;98905.28;7117337;27;20690;-81
2022/12/25 00:56:33;;;;;;;5.30;3.53;;;;;;;14.63;58.62;98899.19;7117106;27;20238;-81
2022/12/25 00:59:55;;;;;;;5.53;3.57;;;;;;;14.49;59.61;98905.03;7117799;27;20249;-81
2022/12/25 01:03:17;;;;;;;7.37;4.43;;;;;;;14.36;59.39;98908.75;7117362;27;20285;-80
2022/12/25 01:06:38;;;;;;;6.50;4.37;;;;;;;14.34;60.12;98918.97;7117650;27;20240;-81
2022/12/25 01:13:40;;;;;;;7.37;4.70;;;;;;;14.13;60.85;98905.84;7123432;27;20172;-81
2022/12/25 01:17:02;;;;;;;6.60;4.90;;;;;;;14.10;61.02;98891.91;7120934;27;20686;-81
2022/12/25 01:20:24;;;;;;;5.80;5.00;;;;;;;14.26;60.90;98918.44;7123693;27;20262;-80
2022/12/25 01:23:45;;;;;;;7.87;5.33;;;;;;;14.23;61.30;98908.88;7122984;27;20548;-81
2022/12/25 01:27:07;;;;;;;7.97;4.70;;;;;;;14.25;61.09;98924.91;7122368;27;20371;-81
2022/12/25 01:30:30;;;;;;;5.80;4.40;;;;;;;14.04;61.71;98919.91;7123117;27;20367;-81
2022/12/25 01:33:52;;;;;;;5.70;4.47;;;;;;;13.78;62.67;98933.72;7123625;27;20324;-81
2022/12/25 01:37:14;;;;;;;6.43;4.13;;;;;;;13.71;63.03;98938.34;7123023;27;20231;-81
2022/12/25 01:40:35;;;;;;;6.53;4.37;;;;;;;13.95;62.50;98941.06;7124153;27;20306;-80
2022/12/25 01:44:03;;;;;;;5.53;4.07;;;;;;;14.08;61.37;98916.53;7124332;27;20281;-81
2022/12/25 01:47:26;;;;;;;6.40;4.10;;;;;;;14.17;61.65;98958.53;7124186;27;20299;-81
2022/12/25 01:50:51;;;;;;;5.33;3.60;;;;;;;14.24;61.22;98953.94;7124250;27;20287;-81
2022/12/25 01:54:15;;;;;;;5.30;3.87;;;;;;;14.31;61.14;98962.81;7124478;27;20298;-80
2022/12/25 01:57:37;;;;;;;7.17;4.50;;;;;;;14.46;60.71;98963.28;7124561;27;20222;-81
2022/12/25 02:00:59;;;;;;;5.60;4.00;;;;;;;14.69;60.58;98930.03;7128803;27;20246;-81
2022/12/25 02:04:37;;;;;;;7.20;4.13;;;;;;;14.19;60.12;98866.16;7127381;27;20289;-81
2022/12/25 02:08:01;;;;;;;6.73;4.47;;;;;;;13.99;60.24;98854.69;7144398;27;20214;-82
2022/12/25 02:15:00;;;;;;;6.23;4.20;;;;;;;14.21;61.17;98942.72;7139480;27;20199;-81
2022/12/25 02:18:31;;;;;;;6.23;4.67;;;;;;;14.02;61.37;98900.31;7118924;27;20199;-81
2022/12/25 02:22:01;;;;;;;7.80;4.20;;;;;;;14.52;60.53;98937.94;7119964;27;20318;-81
2022/12/25 02:25:35;;;;;;;5.87;3.80;;;;;;;14.30;60.67;98942.19;7123799;27;20228;-81
2022/12/25 02:29:01;;;;;;;4.33;3.10;;;;;;;14.55;60.52;98940.22;7123390;27;20254;-81
2022/12/25 02:32:26;;;;;;;3.07;2.40;;;;;;;14.51;59.64;98924.63;7120992;27;20206;-81
2022/12/25 02:35:51;;;;;;;2.40;2.17;;;;;;;14.33;60.55;98928.16;7094471;27;20235;-81
2022/12/25 03:11:29;;;;;;;3.23;2.50;;;;;;;14.44;61.01;98929.28;7090239;27;20239;-81
2022/12/25 03:12:42;;;;;;;5.53;3.13;;;;;;;14.37;61.17;98920.41;7089602;27;20208;-81
2022/12/25 03:27:06;;;;;;;8.43;3.20;;;;;;;14.38;61.48;98894.94;7088359;27;20188;-81
2022/12/25 04:37:08;;;;;;;4.03;2.07;;;;;;;14.35;62.06;98849.28;7087911;27;20223;-81
2022/12/25 04:40:29;;;;;;;3.37;2.30;;;;;;;14.13;61.72;98843.47;7088789;27;20252;-81
2022/12/25 04:43:51;;;;;;;4.20;2.50;;;;;;;13.80;62.53;98859.25;7088537;27;20204;-81
2022/12/25 04:47:12;;;;;;;2.63;2.20;;;;;;;13.66;62.81;98849.63;7087231;27;20294;-81
2022/12/25 04:50:34;;;;;;;4.73;2.20;;;;;;;13.67;63.05;98842.31;7088308;27;20321;-81
2022/12/25 04:53:57;;;;;;;4.07;2.17;;;;;;;14.16;61.79;98836.78;7088438;27;20207;-81
2022/12/25 04:57:18;;;;;;;2.77;2.00;;;;;;;14.29;61.21;98850.19;7087388;27;20343;-81
2022/12/25 05:00:40;;;;;;;3.60;2.10;;;;;;;14.33;61.34;98848.69;7088259;27;20592;-81
2022/12/25 05:04:02;;;;;;;3.70;2.40;;;;;;;14.30;61.34;98841.00;7086952;27;20291;-81
2022/12/25 05:07:23;;;;;;;2.80;2.10;;;;;;;14.34;60.78;98828.66;7101101;27;20252;-81
2022/12/25 05:10:46;;;;;;;3.37;2.53;;;;;;;14.36;60.82;98837.38;7115479;27;20305;-81
2022/12/25 05:14:08;;;;;;;3.37;2.60;;;;;;;14.29;60.62;98829.31;7115765;27;20285;-81
2022/12/25 05:17:29;;;;;;;3.83;3.10;;;;;;;14.31;60.67;98831.81;7113572;27;20208;-81
2022/12/25 05:20:52;;;;;;;2.60;2.40;;;;;;;13.77;62.29;98831.78;7116086;27;20235;-81
2022/12/25 05:24:13;;;;;;;2.20;2.00;;;;;;;13.72;63.10;98823.50;7109288;27;20207;-81
2022/12/25 05:27:36;;;;;;;2.53;2.13;;;;;;;13.54;63.50;98827.03;7086167;27;20340;-81
2022/12/25 05:30:58;;;;;;;1.93;1.80;;;;;;;13.91;62.70;98828.72;7086628;27;20255;-81
2022/12/25 05:34:19;;;;;;;4.83;2.17;;;;;;;14.28;61.75;98822.22;7086704;27;20211;-81
2022/12/25 05:37:41;;;;;;;2.13;1.80;;;;;;;14.27;60.91;98795.38;7086407;27;20284;-81
2022/12/25 05:41:02;;;;;;;4.30;1.80;;;;;;;14.47;60.79;98809.47;7105867;27;20577;-82
2022/12/25 05:44:25;;;;;;;1.90;1.80;;;;;;;13.99;61.54;98812.13;7115707;27;20720;-81
2022/12/25 05:47:47;;;;;;;5.20;3.30;;;;;;;14.09;61.79;98801.59;7115082;27;20234;-81
2022/12/25 05:51:11;;;;;;;2.87;2.53;;;;;;;14.12;62.11;98806.56;7115774;27;20228;-81
2022/12/25 05:54:32;;;;;;;2.10;1.90;;;;;;;13.67;61.90;98740.19;7114915;27;20207;-81
2022/12/25 05:57:54;;;;;;;2.40;2.20;;;;;;;13.74;62.67;98781.56;7115949;27;20293;-81
2022/12/25 06:01:18;;;;;;;2.10;2.00;;;;;;;14.02;62.56;98800.00;7119992;27;20359;-81
2022/12/25 06:04:40;;;;;;;2.10;2.00;;;;;;;14.43;61.32;98800.13;7120941;27;20203;-81
2022/12/25 06:08:01;;;;;;;3.23;2.90;;;;;;;14.58;60.53;98800.56;7120175;27;20751;-81
2022/12/25 06:11:23;;;;;;;3.43;2.40;;;;;;;14.65;60.32;98793.97;7120587;27;20223;-81
2022/12/25 06:14:44;;;;;;;2.27;2.07;;;;;;;14.05;61.05;98761.63;7120012;27;20238;-82
2022/12/25 06:18:07;;;;;;;2.80;2.20;;;;;;;14.21;61.54;98771.88;7120343;27;20578;-81
2022/12/25 06:21:29;;;;;;;2.50;2.30;;;;;;;14.15;61.32;98784.41;7121468;27;20774;-82
2022/12/25 06:24:50;;;;;;;4.00;2.80;;;;;;;14.23;61.46;98775.19;7121062;27;20210;-82
2022/12/25 06:28:12;;;;;;;2.60;2.40;;;;;;;13.89;62.48;98768.50;7120665;27;20239;-81
2022/12/25 06:31:33;;;;;;;2.97;2.67;;;;;;;13.92;62.50;98770.72;7149329;27;20737;-81
2022/12/25 06:34:56;;;;;;;2.43;2.23;;;;;;;14.10;62.46;98769.91;7130343;27;20349;-81
2022/12/25 06:38:18;;;;;;;3.20;2.80;;;;;;;14.01;62.23;98727.88;7091804;27;20277;-81
2022/12/25 06:41:39;;;;;;;2.63;2.40;;;;;;;14.33;61.83;98759.19;7092077;27;20767;-81
2022/12/25 06:45:01;;;;;;;2.37;2.20;;;;;;;14.32;61.69;98763.78;7091691;27;20236;-82
2022/12/25 06:48:22;;;;;;;2.50;2.30;;;;;;;13.95;62.34;98764.88;7119453;27;20317;-81
2022/12/25 06:51:45;;;;;;;2.77;2.57;;;;;;;13.82;63.10;98742.50;7119947;27;20295;-81
2022/12/25 06:55:07;;;;;;;2.90;2.70;;;;;;;14.08;62.82;98756.56;7119554;27;20291;-82
2022/12/25 06:58:29;;;;;;;2.60;2.40;;;;;;;14.00;62.96;98759.59;7120484;27;20283;-82
2022/12/25 07:01:52;;;;;;;6.27;3.40;;;;;;;14.34;61.98;98752.69;7120381;27;20214;-82
2022/12/25 07:05:13;;;;;;;2.27;2.17;;;;;;;14.64;61.13;98776.03;7120347;27;20199;-81
2022/12/25 07:08:36;;;;;;;3.47;3.07;;;;;;;14.51;60.82;98778.13;7097582;27;20291;-82
2022/12/25 07:12:03;;;;;;;4.67;2.10;;;;;;;14.19;61.58;98774.81;7117474;27;20222;-81
2022/12/25 07:15:24;;;;;;;2.37;1.83;;;;;;;13.99;62.88;98773.38;7122459;27;20673;-82
2022/12/25 07:18:46;;;;;;;2.37;2.17;;;;;;;14.45;61.65;98787.19;7119793;27;20282;-82
2022/12/25 07:22:07;;;;;;;3.27;2.20;;;;;;;14.09;61.62;98771.78;7122075;27;20302;-82
2022/12/25 07:25:30;;;;;;;2.50;2.30;;;;;;;14.23;61.86;98791.44;7121320;27;20262;-82
2022/12/25 07:28:52;;;;;;;5.63;3.27;;;;;;;13.78;63.47;98784.66;7120717;27;20242;-82
2022/12/25 07:32:13;;;;;;;3.73;2.50;;;;;;;14.32;62.33;98782.75;7121819;27;20640;-77
2022/12/25 07:35:36;;;;;;;3.10;2.80;;;;;;;14.70;61.21;98790.56;7124355;27;20259;-80
2022/12/25 07:38:57;;;;;;;6.73;3.30;;;;;;;14.64;60.76;98781.44;7136370;27;20234;-81
2022/12/25 07:42:20;;;;;;;4.70;3.20;;;;;;;14.58;61.17;98763.38;7124854;27;20226;-80
2022/12/25 07:45:41;;;;;;;3.27;3.07;;;;;;;14.52;60.76;98779.78;7126628;27;20291;-82
2022/12/25 07:49:03;;;;;;;3.17;2.80;;;;;;;14.90;60.67;98772.91;7101330;27;22134;-81
2022/12/25 07:52:24;;;;;;;2.40;2.20;;;;;;;14.99;60.35;98762.53;7110125;27;20218;-81
2022/12/25 07:55:46;;;;;;;2.50;2.30;;;;;;;14.77;60.28;98735.13;7118230;27;20207;-81
2022/12/25 07:59:09;;;;;;;2.40;2.20;;;;;;;14.97;59.98;98743.78;7117604;27;20323;-81
2022/12/25 08:02:30;;;;;;;2.80;2.60;;;;;;;15.05;60.02;98748.03;7116651;27;20218;-81
2022/12/25 08:05:52;;;;;;;5.57;4.17;;;;;;;15.15;59.15;98743.66;7114615;27;20298;-81
2022/12/25 08:09:13;;;;;;;3.87;2.50;;;;;;;15.06;59.22;98736.09;7114929;27;20316;-81
2022/12/25 08:12:35;;;;;;;2.10;2.00;;;;;;;14.96;59.56;98731.25;7118414;27;20191;-83
2022/12/25 08:15:58;;;;;;;2.00;1.63;;;;;;;14.61;60.48;98719.53;7115932;27;20306;-79
2022/12/25 08:19:20;;;;;;;2.03;1.93;;;;;;;14.80;60.65;98728.41;7112246;27;20309;-82
2022/12/25 08:22:41;;;;;;;4.93;2.30;;;;;;;14.56;61.60;98734.81;7114318;27;20206;-78
2022/12/25 08:26:04;;;;;;;2.10;1.83;;;;;;;14.15;62.85;98732.09;7101550;27;20252;-81
2022/12/25 08:29:27;;;;;;;4.23;3.83;;;;;;;13.30;64.81;98749.34;7091528;27;20279;-80
2022/12/25 08:32:50;;;;;;;4.23;3.43;;;;;;;13.73;64.13;98752.81;7086841;27;20211;-80
2022/12/25 08:36:12;;;;;;;6.67;4.23;;;;;;;13.88;63.28;98764.13;7112905;27;20258;-78
2022/12/25 08:39:33;;;;;;;5.70;4.33;;;;;;;14.69;61.77;98770.72;7114159;27;20219;-80
2022/12/25 08:42:55;;;;;;;5.17;4.27;;;;;;;14.22;62.87;98779.75;7100759;27;20634;-79
2022/12/25 08:46:17;;;;;;;3.57;3.13;;;;;;;15.09;62.25;98779.06;7100181;27;20258;-79
2022/12/25 08:49:40;;;;;;;5.90;5.30;;;;;;;16.03;58.63;98774.19;7113278;27;20283;-79
2022/12/25 08:53:02;;;;;;;7.07;6.37;;;;;;;16.10;57.81;98780.34;7103293;27;20267;-79
2022/12/25 08:56:23;;;;;;;7.67;5.30;;;;;;;15.52;58.62;98769.56;7084493;28;20294;-79
2022/12/25 08:59:44;;;;;;;6.27;4.83;;;;;;;15.75;58.22;98776.88;7103033;27;20356;-79
2022/12/25 09:03:06;;;;;;;5.37;4.83;;;;;;;15.60;58.63;98760.22;7114897;27;20240;-79
2022/12/25 09:06:29;;;;;;;5.17;4.67;;;;;;;15.60;58.85;98758.34;7112328;27;20279;-79
2022/12/25 09:09:51;;;;;;;4.80;4.40;;;;;;;15.16;59.99;98742.59;7095248;27;20222;-79
2022/12/25 09:13:12;;;;;;;5.57;3.60;;;;;;;15.37;59.36;98736.63;7143475;27;20754;-80
2022/12/25 09:16:34;;;;;;;6.20;4.50;;;;;;;15.34;60.01;98722.69;7111638;27;20214;-79
2022/12/25 09:19:55;;;;;;;7.20;5.37;;;;;;;15.32;61.23;98678.59;7109605;27;20219;-80
2022/12/25 09:23:18;;;;;;;17.17;14.57;;;;;;;15.82;59.79;98660.66;7097325;27;20246;-79
2022/12/25 09:26:40;;;;;;;10.20;8.40;;;;;;;16.33;58.75;98699.47;7113546;27;20208;-84
2022/12/25 09:30:01;;;;;;;9.97;7.43;;;;;;;16.54;57.73;98693.34;7114810;27;20739;-80
2022/12/25 09:33:23;;;;;;;9.50;7.50;;;;;;;16.34;58.17;98700.28;7117159;27;20282;-79
2022/12/25 09:36:45;;;;;;;8.93;6.47;;;;;;;17.00;57.35;98711.28;7119558;27;20802;-81
2022/12/25 09:40:10;;;;;;;6.23;5.10;;;;;;;16.86;57.30;98715.41;7104069;27;20593;-78
2022/12/25 09:43:33;;;;;;;8.13;6.47;;;;;;;16.59;57.35;98695.34;7091615;27;20353;-79
2022/12/25 09:46:59;;;;;;;9.90;7.23;;;;;;;16.58;57.95;98705.38;7091025;27;20204;-81
2022/12/25 09:50:23;;;;;;;9.33;6.90;;;;;;;16.52;57.66;98722.69;7112633;27;20239;-81
2022/12/25 09:53:48;;;;;;;7.40;6.60;;;;;;;16.85;57.70;98703.69;7120917;27;20240;-81
2022/12/25 09:57:13;;;;;;;6.23;5.60;;;;;;;17.12;55.95;98714.72;7119664;27;20238;-86
2022/12/25 10:00:38;;;;;;;5.63;5.03;;;;;;;17.26;55.96;98677.88;7118427;27;20248;-81
2022/12/25 10:04:15;;;;;;;6.67;5.20;;;;;;;17.89;54.88;98709.06;7115988;27;20285;-81
2022/12/25 10:07:41;;;;;;;8.00;7.20;;;;;;;18.11;54.54;98719.97;7090446;27;20213;-80
2022/12/25 10:11:09;;;;;;;8.00;7.00;;;;;;;17.82;54.70;98715.78;7104908;27;20221;-79
2022/12/25 10:14:36;;;;;;;8.20;6.67;;;;;;;17.30;56.61;98726.19;7127495;27;20189;-81
2022/12/25 10:18:09;;;;;;;6.70;6.00;;;;;;;16.87;57.50;98700.72;7118890;27;20325;-79
2022/12/25 10:21:31;;;;;;;4.17;3.80;;;;;;;18.14;53.02;98682.06;7116304;27;20290;-78
2022/12/25 10:24:54;;;;;;;6.27;4.97;;;;;;;18.77;53.14;98704.03;7117802;27;20337;-78
2022/12/25 10:28:19;;;;;;;6.70;4.67;;;;;;;18.80;52.57;98691.75;7118362;27;20202;-77
2022/12/25 10:31:45;;;;;;;4.30;3.90;;;;;;;18.61;52.65;98680.41;7106777;27;20285;-77
2022/12/25 10:35:11;;;;;;;5.47;4.20;;;;;;;18.86;51.96;98650.56;7089373;27;20328;-79
2022/12/25 10:38:32;;;;;;;4.83;3.70;;;;;;;18.99;50.89;98635.63;7114696;27;20290;-78
2022/12/25 10:42:04;;;;;;;4.30;3.90;;;;;;;19.16;50.87;98666.34;7111542;27;20305;-79
2022/12/25 10:45:26;;;;;;;5.90;3.50;;;;;;;19.21;50.71;98664.50;7115963;27;20292;-78
2022/12/25 10:48:50;;;;;;;4.57;4.00;;;;;;;19.00;52.07;98661.88;7094370;27;20237;-76
2022/12/25 10:52:19;;;;;;;3.70;3.37;;;;;;;19.25;51.51;98662.06;7107704;27;20299;-78
2022/12/25 10:55:41;;;;;;;4.13;3.00;;;;;;;19.38;50.60;98650.66;7089133;27;20187;-79
2022/12/25 10:59:06;;;;;;;5.40;4.07;;;;;;;19.32;51.56;98643.50;7101249;27;20250;-77
2022/12/25 11:02:29;;;;;;;3.77;3.37;;;;;;;19.43;50.78;98629.63;7118963;27;20266;-78
2022/12/25 11:05:53;;;;;;;4.47;3.53;;;;;;;19.34;51.65;98622.22;7119228;27;20290;-79
2022/12/25 11:09:16;;;;;;;8.40;7.60;;;;;;;19.46;50.33;98598.22;7111701;27;20232;-80
2022/12/25 11:12:42;;;;;;;5.57;4.70;;;;;;;19.90;49.78;98611.22;7119812;27;20339;-81
2022/12/25 11:16:08;;;;;;;6.23;4.03;;;;;;;19.70;50.59;98624.81;7120495;27;20218;-82
2022/12/25 11:19:31;;;;;;;3.67;3.37;;;;;;;19.82;49.31;98613.66;7118531;27;20218;-76
2022/12/25 11:22:54;;;;;;;6.43;3.90;;;;;;;19.70;49.48;98607.59;7118843;27;20290;-79
2022/12/25 11:26:17;;;;;;;4.37;3.97;;;;;;;19.46;51.03;98611.88;7113942;27;20289;-80
2022/12/25 11:29:43;;;;;;;5.43;4.40;;;;;;;19.55;51.45;98608.38;7103701;27;20310;-76
2022/12/25 11:33:09;;;;;;;6.30;5.70;;;;;;;19.73;50.69;98609.78;7088484;27;20725;-75
2022/12/25 11:36:38;;;;;;;7.10;5.10;;;;;;;19.34;50.53;98608.53;7091271;27;20197;-77
2022/12/25 11:40:01;;;;;;;8.87;5.67;;;;;;;19.69;50.27;98584.09;7120687;27;20266;-77
2022/12/25 11:43:25;;;;;;;8.10;5.77;;;;;;;19.82;50.02;98597.25;7115921;27;20201;-76
2022/12/25 11:46:50;;;;;;;8.20;6.03;;;;;;;19.78;50.53;98596.13;7112565;27;20270;-78
2022/12/25 11:50:22;;;;;;;12.13;7.40;;;;;;;19.95;50.62;98600.31;7114070;27;20239;-76
2022/12/25 11:53:47;;;;;;;9.70;7.17;;;;;;;20.08;50.30;98575.19;7115785;27;20191;-76
2022/12/25 11:57:11;;;;;;;6.67;5.00;;;;;;;20.54;48.82;98570.53;7120619;27;20202;-78
2022/12/25 12:00:33;;;;;;;7.17;5.70;;;;;;;20.25;49.18;98561.22;7120482;27;20283;-86
2022/12/25 12:03:55;;;;;;;5.53;5.00;;;;;;;20.36;48.66;98554.66;7116987;27;20285;-77
2022/12/25 12:07:21;;;;;;;7.17;4.90;;;;;;;20.77;49.18;98562.59;7116087;27;20339;-79
2022/12/25 12:10:55;;;;;;;5.37;4.57;;;;;;;20.78;48.40;98576.00;7109618;27;20693;-78
2022/12/25 12:14:30;;;;;;;3.53;3.10;;;;;;;21.09;47.15;98549.38;7113980;27;20263;-77
2022/12/25 12:17:52;;;;;;;3.83;2.90;;;;;;;20.96;46.91;98528.03;7109849;27;20226;-78
2022/12/25 12:21:21;;;;;;;2.83;2.50;;;;;;;21.36;46.07;98514.19;7094740;27;20223;-77
2022/12/25 12:24:44;;;;;;;2.57;2.37;;;;;;;21.26;44.69;98489.56;7100573;27;20327;-76
2022/12/25 12:28:06;;;;;;;2.87;2.13;;;;;;;21.00;45.04;98509.97;7115831;27;20747;-78
2022/12/25 12:31:38;;;;;;;2.10;2.00;;;;;;;20.80;45.45;98493.53;7114990;27;20314;-76
2022/12/25 12:35:00;;;;;;;2.30;2.10;;;;;;;20.93;44.88;98497.63;7114093;27;20214;-75
2022/12/25 12:38:23;;;;;;;3.40;2.30;;;;;;;21.09;44.83;98475.38;7113806;27;20295;-76
2022/12/25 12:41:46;;;;;;;1.70;1.60;;;;;;;21.23;44.54;98497.53;7086263;27;20227;-75
2022/12/25 12:45:09;;;;;;;3.50;2.80;;;;;;;21.15;44.13;98498.91;7090428;27;20203;-76
2022/12/25 12:48:38;;;;;;;4.07;2.30;;;;;;;21.14;44.14;98491.81;7112511;27;20286;-75
2022/12/25 12:52:05;;;;;;;2.33;2.13;;;;;;;20.55;45.89;98490.84;7111642;27;20226;-76
2022/12/25 12:55:30;;;;;;;3.30;2.33;;;;;;;20.90;45.47;98507.25;7115113;27;20285;-75
2022/12/25 12:58:52;;;;;;;2.73;2.53;;;;;;;21.51;44.56;98520.44;7119369;27;20228;-76
2022/12/25 13:02:31;;;;;;;2.50;2.30;;;;;;;21.73;43.87;98515.38;7115022;27;20569;-76
2022/12/25 13:05:56;;;;;;;2.33;1.97;;;;;;;21.93;43.24;98511.69;7114856;27;20191;-76
2022/12/25 13:09:27;;;;;;;1.90;1.80;;;;;;;21.50;43.43;98468.59;7112265;27;20995;-75
2022/12/25 13:12:52;;;;;;;4.90;1.60;;;;;;;21.75;43.18;98463.78;7111864;27;20207;-76
2022/12/25 13:16:19;;;;;;;1.90;1.80;;;;;;;21.40;44.05;98494.16;7122665;27;20267;-76
2022/12/25 13:19:42;;;;;;;1.87;1.77;;;;;;;21.62;44.17;98485.53;7101495;27;20226;-77
2022/12/25 13:23:15;;;;;;;2.27;2.10;;;;;;;21.82;43.73;98466.19;7104774;27;20233;-77
2022/12/25 13:26:38;;;;;;;2.97;2.37;;;;;;;22.04;42.80;98470.16;7113700;27;20237;-77
2022/12/25 13:29:59;;;;;;;2.33;2.00;;;;;;;21.67;42.92;98420.47;7116757;27;20226;-77
2022/12/25 13:33:22;;;;;;;2.23;2.03;;;;;;;21.83;43.81;98470.59;7102554;27;20563;-77
2022/12/25 13:36:43;;;;;;;3.43;2.10;;;;;;;21.84;43.43;98484.03;7092425;27;20256;-75
2022/12/25 13:40:13;;;;;;;4.50;2.70;;;;;;;21.74;44.02;98492.34;7103491;27;20307;-75
2022/12/25 13:43:34;;;;;;;2.80;2.50;;;;;;;21.73;43.78;98476.97;7114372;27;20751;-79
2022/12/25 13:46:56;;;;;;;2.60;2.40;;;;;;;21.77;43.17;98502.75;7099455;27;20710;-78
2022/12/25 13:50:23;;;;;;;1.60;1.50;;;;;;;21.46;43.27;98498.50;7119839;27;20315;-79
2022/12/25 13:53:44;;;;;;;3.27;2.00;;;;;;;21.60;43.14;98483.06;7121149;27;20627;-79
2022/12/25 13:57:11;;;;;;;3.03;2.60;;;;;;;21.27;43.10;98465.72;7114135;27;20565;-79
2022/12/25 14:00:36;;;;;;;1.73;1.63;;;;;;;20.54;45.08;98469.19;7097817;27;20224;-79
2022/12/25 14:03:58;;;;;;;2.57;2.30;;;;;;;21.03;44.77;98487.44;7096599;27;20267;-78
2022/12/25 14:07:23;;;;;;;4.83;2.77;;;;;;;20.72;45.32;98474.91;7118401;27;20244;-78
2022/12/25 14:10:48;;;;;;;4.73;2.67;;;;;;;20.78;45.75;98477.34;7105465;27;20223;-78
2022/12/25 14:14:16;;;;;;;4.63;2.60;;;;;;;20.48;46.60;98467.56;7108941;27;20245;-78
2022/12/25 14:17:37;;;;;;;2.73;2.37;;;;;;;20.44;46.25;98464.56;7108160;27;20266;-78
2022/12/25 14:21:01;;;;;;;2.30;2.10;;;;;;;20.82;45.67;98474.06;7118256;27;20695;-76
2022/12/25 14:24:25;;;;;;;3.07;1.90;;;;;;;20.46;46.79;98467.03;7110870;27;20715;-78
2022/12/25 14:27:48;;;;;;;3.33;2.50;;;;;;;20.16;47.73;98458.84;7112344;27;20322;-78
2022/12/25 14:31:12;;;;;;;5.70;3.13;;;;;;;20.15;47.85;98477.19;7115440;27;20385;-77
2022/12/25 14:34:34;;;;;;;6.23;5.53;;;;;;;19.78;49.05;98471.13;7107604;27;20285;-77
2022/12/25 14:37:58;;;;;;;3.43;3.13;;;;;;;19.65;48.99;98463.44;7118570;27;20282;-79
2022/12/25 14:41:32;;;;;;;4.00;3.10;;;;;;;19.33;50.20;98464.75;7108062;27;20238;-78
2022/12/25 14:44:59;;;;;;;3.17;2.83;;;;;;;19.06;51.52;98477.72;7091756;27;20293;-78
2022/12/25 14:48:24;;;;;;;3.80;2.83;;;;;;;18.70;52.24;98473.19;7089484;27;20206;-74
2022/12/25 14:51:46;;;;;;;3.70;2.80;;;;;;;18.73;52.32;98470.72;7089799;27;20755;-77
2022/12/25 14:55:18;;;;;;;4.30;2.90;;;;;;;18.35;53.16;98483.88;7088861;27;20244;-76
2022/12/25 14:58:41;;;;;;;4.30;3.30;;;;;;;17.88;54.51;98483.72;7093217;27;20197;-76
2022/12/25 15:02:03;;;;;;;4.30;3.10;;;;;;;17.99;54.70;98468.28;7117698;27;20709;-76
2022/12/25 15:05:29;;;;;;;3.30;3.00;;;;;;;18.06;53.90;98464.25;7116293;27;20209;-77
2022/12/25 15:08:58;;;;;;;3.50;3.20;;;;;;;17.97;54.03;98470.44;7117004;27;20197;-77
2022/12/25 15:12:19;;;;;;;4.40;3.20;;;;;;;18.20;53.32;98495.47;7116140;27;20273;-77
2022/12/25 15:15:46;;;;;;;3.40;3.20;;;;;;;17.93;53.96;98491.94;7116631;27;20261;-78
2022/12/25 15:19:09;;;;;;;5.23;3.90;;;;;;;17.57;55.65;98476.34;7090351;27;20749;-78
2022/12/25 15:22:32;;;;;;;8.63;4.53;;;;;;;17.69;55.13;98478.94;7122115;27;20205;-79
2022/12/25 15:25:54;;;;;;;3.70;3.40;;;;;;;17.15;56.11;98491.66;7115437;27;21610;-79
2022/12/25 15:29:15;;;;;;;5.80;4.03;;;;;;;17.26;55.76;98489.88;7116762;27;20237;-78
2022/12/25 15:32:37;;;;;;;4.07;3.50;;;;;;;16.81;57.38;98483.88;7117448;27;20318;-78
2022/12/25 15:35:59;;;;;;;4.60;3.83;;;;;;;16.01;59.62;98502.50;7121550;27;20198;-79
2022/12/25 15:39:22;;;;;;;4.30;3.73;;;;;;;15.52;61.47;98486.16;7106685;27;20223;-79
2022/12/25 15:42:44;;;;;;;4.23;3.60;;;;;;;16.33;59.98;98495.41;7116038;27;20239;-79
2022/12/25 15:46:08;;;;;;;3.77;3.47;;;;;;;16.88;57.96;98485.31;7089756;27;20204;-78
2022/12/25 15:49:30;;;;;;;4.10;3.13;;;;;;;16.97;56.05;98472.91;7086751;27;20256;-78
2022/12/25 15:52:51;;;;;;;3.40;3.07;;;;;;;16.75;56.75;98487.59;7085964;27;20305;-79
2022/12/25 15:56:14;;;;;;;5.13;2.90;;;;;;;16.86;56.20;98492.91;7084743;27;20227;-79
2022/12/25 15:59:36;;;;;;;3.37;2.63;;;;;;;16.53;57.53;98487.59;7086584;27;20220;-79
2022/12/25 16:02:57;;;;;;;4.20;3.30;;;;;;;16.70;56.90;98493.78;7088729;27;20678;-79
2022/12/25 16:06:19;;;;;;;4.73;3.10;;;;;;;16.78;56.36;98468.03;7088746;27;20724;-79
2022/12/25 16:09:41;;;;;;;3.87;3.00;;;;;;;16.70;56.59;98506.59;7087549;27;20288;-79
2022/12/25 16:13:03;;;;;;;6.70;3.67;;;;;;;16.42;56.81;98482.22;7090588;27;20223;-79
2022/12/25 16:16:25;;;;;;;3.77;3.40;;;;;;;16.15;57.64;98495.66;7114127;27;20275;-79
2022/12/25 16:19:46;;;;;;;4.50;3.73;;;;;;;16.49;56.88;98507.38;7100188;27;20824;-79
2022/12/25 16:23:08;;;;;;;5.77;4.00;;;;;;;16.52;56.70;98513.13;7113608;27;20245;-79
2022/12/25 16:26:32;;;;;;;5.50;4.27;;;;;;;16.37;57.55;98509.31;7101933;27;20207;-78
2022/12/25 16:29:54;;;;;;;5.03;4.23;;;;;;;16.17;57.65;98519.91;7084610;27;20237;-79
2022/12/25 16:33:16;;;;;;;6.43;4.90;;;;;;;15.68;59.16;98531.56;7085646;27;20297;-79
2022/12/25 16:36:37;;;;;;;6.20;5.00;;;;;;;15.76;59.43;98520.28;7102487;27;20224;-78
2022/12/25 16:39:59;;;;;;;7.60;5.90;;;;;;;16.13;58.63;98521.47;7113330;27;20226;-79
2022/12/25 16:43:20;;;;;;;4.43;3.07;;;;;;;15.63;58.54;98531.47;7114230;27;20237;-79
2022/12/25 16:46:43;;;;;;;7.10;3.83;;;;;;;16.35;56.96;98534.06;7114951;27;20278;-78
2022/12/25 16:50:07;;;;;;;9.17;7.87;;;;;;;15.92;58.30;98544.75;7114989;27;20286;-78
2022/12/25 16:53:29;;;;;;;8.27;6.23;;;;;;;15.70;59.38;98535.66;7092740;27;20240;-77
2022/12/25 16:56:51;;;;;;;7.53;4.90;;;;;;;16.09;58.58;98540.16;7086866;27;20298;-83
2022/12/25 17:00:14;;;;;;;8.30;6.80;;;;;;;16.26;57.11;98541.00;7086378;27;20221;-79
2022/12/25 17:03:37;;;;;;;10.13;9.03;;;;;;;16.48;56.70;98522.03;7086163;27;20749;-77
2022/12/25 17:06:58;;;;;;;7.17;5.83;;;;;;;16.47;56.25;98555.78;7085085;28;20205;-79
2022/12/25 17:10:20;;;;;;;6.27;5.67;;;;;;;16.43;56.39;98551.91;7085044;27;20316;-79
2022/12/25 17:13:44;;;;;;;9.70;5.27;;;;;;;15.39;59.15;98555.16;7085953;27;20223;-80
2022/12/25 17:17:06;;;;;;;9.03;5.20;;;;;;;15.55;59.24;98520.97;7085349;27;20738;-78
2022/12/25 17:20:29;;;;;;;5.70;5.10;;;;;;;15.77;58.78;98538.22;7086545;27;20301;-79
2022/12/25 17:23:50;;;;;;;8.53;5.43;;;;;;;15.74;58.69;98525.16;7087585;27;20212;-83
2022/12/25 17:27:12;;;;;;;15.57;8.07;;;;;;;15.62;59.43;98535.25;7088963;27;20240;-79
2022/12/25 17:30:33;;;;;;;14.63;8.93;;;;;;;15.64;60.30;98544.78;7085875;27;20695;-80
2022/12/25 17:33:55;;;;;;;39.90;25.03;;;;;;;15.63;59.34;98534.97;7113577;27;20301;-82
2022/12/25 17:37:18;;;;;;;7.10;6.13;;;;;;;15.55;59.00;98529.94;7114751;27;20286;-80
2022/12/25 17:40:39;;;;;;;6.23;5.63;;;;;;;15.41;59.31;98555.78;7115103;27;20230;-79
2022/12/25 17:44:01;;;;;;;4.90;4.23;;;;;;;15.42;60.00;98556.59;7115272;27;20206;-79
2022/12/25 17:47:22;;;;;;;5.93;5.33;;;;;;;15.35;59.50;98558.63;7113912;27;20207;-80
2022/12/25 17:50:44;;;;;;;6.47;5.43;;;;;;;15.42;58.64;98523.97;7086547;27;20766;-78
2022/12/25 17:54:07;;;;;;;5.53;4.47;;;;;;;15.38;58.29;98563.56;7090768;27;20694;-79